Time;durP1;ratioP1;P1;durP2;ratioP2;P2;SDS_P1;SDS_P2;PMS_P1;PMS_P2;Temp;Humidity;BMP_temperature;BMP_pressure;BME280_temperature;BME280_humidity;BME280_pressure;Samples;Min_cycle;Max_cycle;Signal;HPM_P1;HPM_P2
2022/02/13 00:01:34;;;;;;;3.17;1.70;;;;;;;2.58;67.94;101281.81;5026148;28;20662;-69
2022/02/13 00:04:01;;;;;;;5.80;3.10;;;;;;;2.58;67.58;101285.31;5021368;28;20212;-69
2022/02/13 00:06:27;;;;;;;4.93;2.20;;;;;;;2.60;67.63;101278.25;5024805;28;20304;-69
2022/02/13 00:08:55;;;;;;;3.00;2.27;;;;;;;2.60;67.57;101275.63;5021436;28;20302;-69
2022/02/13 00:11:22;;;;;;;4.87;2.83;;;;;;;2.61;67.69;101279.13;5022200;28;20298;-69
2022/02/13 00:13:49;;;;;;;5.90;2.77;;;;;;;2.60;67.60;101278.25;5020844;28;20260;-69
2022/02/13 00:16:16;;;;;;;5.13;2.70;;;;;;;2.59;67.09;101273.03;5023182;28;20244;-68
2022/02/13 00:18:43;;;;;;;4.77;2.70;;;;;;;2.58;66.97;101268.66;5026050;28;20325;-68
2022/02/13 00:21:10;;;;;;;3.60;2.60;;;;;;;2.60;67.07;101259.84;5018189;28;20217;-67
2022/02/13 00:23:36;;;;;;;3.47;2.70;;;;;;;2.58;67.16;101256.38;5017809;28;20216;-68
2022/02/13 00:26:04;;;;;;;3.37;2.47;;;;;;;2.60;67.07;101254.59;5021969;28;20244;-68
2022/02/13 00:28:32;;;;;;;5.57;2.20;;;;;;;2.60;67.50;101246.72;5017595;28;20321;-68
2022/02/13 00:30:58;;;;;;;3.93;2.50;;;;;;;2.64;67.49;101243.13;5029277;28;20214;-70
2022/02/13 00:33:25;;;;;;;5.73;2.73;;;;;;;2.60;67.33;101238.81;5017883;28;20249;-68
2022/02/13 00:35:52;;;;;;;3.10;2.20;;;;;;;2.69;67.21;101232.47;5019755;28;20312;-68
2022/02/13 00:38:18;;;;;;;3.73;2.63;;;;;;;2.69;66.60;101225.44;5011553;28;20337;-65
2022/02/13 00:40:45;;;;;;;4.37;2.17;;;;;;;2.71;67.04;101222.78;5021404;28;20245;-70
2022/02/13 00:43:13;;;;;;;3.43;2.30;;;;;;;2.69;66.88;101217.56;5031647;28;20297;-69
2022/02/13 00:45:39;;;;;;;5.70;2.93;;;;;;;2.70;66.69;101218.44;5016713;28;20223;-68
2022/02/13 00:48:07;;;;;;;3.43;2.30;;;;;;;2.70;66.65;101219.28;5026033;28;20218;-69
2022/02/13 00:50:34;;;;;;;5.73;3.03;;;;;;;2.73;66.61;101224.50;5032270;28;20293;-68
2022/02/13 00:53:01;;;;;;;5.57;2.97;;;;;;;2.74;66.56;101213.06;5033230;28;20289;-69
2022/02/13 00:55:27;;;;;;;4.10;2.23;;;;;;;2.76;66.21;101216.53;5014829;28;20688;-68
2022/02/13 00:57:54;;;;;;;5.83;3.27;;;;;;;2.76;65.98;101211.28;5015390;28;20237;-68
2022/02/13 01:00:22;;;;;;;3.90;2.70;;;;;;;2.80;65.54;101209.47;5027721;28;20206;-66
2022/02/13 01:02:49;;;;;;;4.97;2.70;;;;;;;2.78;65.97;101206.00;5019530;28;20666;-70
2022/02/13 01:05:17;;;;;;;4.03;2.83;;;;;;;2.78;65.93;101193.69;5033140;28;20277;-69
2022/02/13 01:07:44;;;;;;;5.93;3.00;;;;;;;2.76;66.16;101200.75;5027271;28;20320;-69
2022/02/13 01:10:12;;;;;;;6.97;3.00;;;;;;;2.75;66.17;101198.16;5028776;28;20220;-69
2022/02/13 01:12:38;;;;;;;3.80;2.67;;;;;;;2.74;65.59;101193.81;5028073;28;20233;-69
2022/02/13 01:15:06;;;;;;;4.17;3.00;;;;;;;2.73;66.01;101192.06;5026889;28;20254;-70
2022/02/13 01:17:35;;;;;;;5.67;2.90;;;;;;;2.73;66.05;101186.81;5029197;28;20226;-68
2022/02/13 01:20:01;;;;;;;7.03;2.50;;;;;;;2.72;65.43;101191.19;5022855;28;20225;-66
2022/02/13 01:22:28;;;;;;;4.70;2.67;;;;;;;2.70;65.50;101187.75;5015563;28;20722;-68
2022/02/13 01:24:54;;;;;;;3.50;2.63;;;;;;;2.70;65.53;101192.13;5025399;28;20225;-69
2022/02/13 01:27:21;;;;;;;4.30;2.83;;;;;;;2.68;65.16;101186.94;5027189;28;20671;-68
2022/02/13 01:29:48;;;;;;;5.17;2.87;;;;;;;2.65;65.96;101196.66;5026849;28;20290;-68
2022/02/13 01:32:14;;;;;;;5.07;3.17;;;;;;;2.62;65.55;101189.69;5023219;28;20309;-70
2022/02/13 01:34:42;;;;;;;4.27;2.83;;;;;;;2.57;65.29;101186.28;5017680;28;20254;-69
2022/02/13 01:37:09;;;;;;;4.43;2.90;;;;;;;2.55;65.26;101184.59;5031086;28;20230;-69
2022/02/13 01:39:36;;;;;;;4.67;2.53;;;;;;;2.50;65.72;101176.81;5027438;28;20264;-69
2022/02/13 01:42:03;;;;;;;4.97;3.03;;;;;;;2.44;65.61;101174.31;5025081;28;20235;-67
2022/02/13 01:44:32;;;;;;;5.97;2.90;;;;;;;2.37;66.14;101178.81;5026343;28;20557;-69
2022/02/13 01:46:58;;;;;;;4.13;2.70;;;;;;;2.32;66.04;101166.72;5019729;28;20254;-69
2022/02/13 01:49:25;;;;;;;7.37;3.63;;;;;;;2.28;66.08;101152.75;5024789;28;20671;-69
2022/02/13 01:51:55;;;;;;;4.53;3.20;;;;;;;2.24;65.82;101158.09;5031545;28;20308;-70
2022/02/13 01:54:22;;;;;;;7.27;3.50;;;;;;;2.19;66.59;101147.69;5023982;28;20322;-69
2022/02/13 01:56:49;;;;;;;4.57;3.50;;;;;;;2.14;66.96;101148.69;5013059;28;20311;-68
2022/02/13 01:59:16;;;;;;;5.93;3.50;;;;;;;2.11;66.88;101148.75;5025295;28;20264;-66
2022/02/13 02:01:43;;;;;;;5.90;3.07;;;;;;;2.06;67.16;101146.22;5024690;28;20301;-70
2022/02/13 02:04:10;;;;;;;6.73;3.53;;;;;;;2.01;66.83;101146.28;5016074;28;20754;-68
2022/02/13 02:06:36;;;;;;;5.40;2.90;;;;;;;1.98;67.06;101142.84;5038198;22;20796;-69
2022/02/13 02:09:05;;;;;;;7.47;3.40;;;;;;;1.92;67.42;101136.00;5010956;28;20301;-70
2022/02/13 02:11:32;;;;;;;6.30;3.13;;;;;;;1.90;67.70;101131.66;5008991;28;20301;-68
2022/02/13 02:13:59;;;;;;;5.27;3.70;;;;;;;1.86;67.57;101143.97;5012035;28;20214;-71
2022/02/13 02:16:26;;;;;;;7.70;3.90;;;;;;;1.85;67.59;101141.38;5011301;28;20234;-69
2022/02/13 02:18:53;;;;;;;7.17;4.03;;;;;;;1.81;68.15;101135.31;5005535;28;20248;-69
2022/02/13 02:21:19;;;;;;;5.83;3.77;;;;;;;1.80;68.02;101132.72;5006071;28;20221;-68
2022/02/13 02:23:47;;;;;;;8.27;4.70;;;;;;;1.78;67.94;101124.91;5006449;28;20206;-69
2022/02/13 02:26:18;;;;;;;8.73;4.57;;;;;;;1.77;68.09;101131.06;5003296;28;20744;-68
2022/02/13 02:28:44;;;;;;;5.13;3.30;;;;;;;1.82;68.34;101110.78;5005083;28;20203;-69
2022/02/13 02:31:11;;;;;;;6.63;3.63;;;;;;;1.85;68.40;101105.47;5011506;28;20210;-69
2022/02/13 02:33:37;;;;;;;5.80;3.57;;;;;;;1.94;67.83;101094.81;5007480;28;20248;-72
2022/02/13 02:36:05;;;;;;;7.50;2.93;;;;;;;1.98;68.00;101091.19;5002617;28;20231;-70
2022/02/13 02:38:31;;;;;;;7.27;3.37;;;;;;;2.02;67.37;101084.97;4991460;28;20231;-69
2022/02/13 02:40:59;;;;;;;4.77;2.77;;;;;;;2.08;66.50;101078.75;5002389;28;20242;-69
2022/02/13 02:43:26;;;;;;;4.80;2.87;;;;;;;2.10;66.79;101079.56;4998650;28;20208;-69
2022/02/13 02:45:52;;;;;;;4.87;2.70;;;;;;;2.14;66.76;101065.47;4999194;28;20219;-70
2022/02/13 02:48:19;;;;;;;4.00;2.33;;;;;;;2.19;66.18;101062.72;5010037;28;20285;-71
2022/02/13 02:50:45;;;;;;;6.40;2.80;;;;;;;2.22;65.96;101058.28;4992972;28;20211;-69
2022/02/13 02:53:12;;;;;;;5.80;3.10;;;;;;;2.25;65.56;101054.72;4993186;28;20208;-70
2022/02/13 02:55:39;;;;;;;5.53;3.37;;;;;;;2.25;65.16;101060.84;5003428;28;20221;-70
2022/02/13 02:58:08;;;;;;;7.30;3.63;;;;;;;2.31;65.21;101057.22;4998584;28;20231;-70
2022/02/13 03:00:34;;;;;;;5.40;3.07;;;;;;;2.36;65.17;101037.78;4992306;28;20218;-74
2022/02/13 03:03:01;;;;;;;6.77;3.50;;;;;;;2.37;65.09;101046.53;5004471;28;20720;-70
2022/02/13 03:05:28;;;;;;;3.03;2.47;;;;;;;2.38;64.34;101067.53;5002164;28;20213;-70
2022/02/13 03:07:54;;;;;;;7.33;4.37;;;;;;;2.38;64.74;101061.41;4997884;28;20222;-69
2022/02/13 03:10:21;;;;;;;9.07;4.80;;;;;;;2.40;64.60;101064.88;5000082;28;20214;-70
2022/02/13 03:12:47;;;;;;;7.23;4.40;;;;;;;2.40;63.96;101063.09;5000054;28;20294;-70
2022/02/13 03:15:15;;;;;;;7.13;4.43;;;;;;;2.40;63.85;101073.63;5010910;28;20207;-69
2022/02/13 03:17:42;;;;;;;8.17;4.80;;;;;;;2.41;64.05;101070.09;5009653;28;20219;-69
2022/02/13 03:20:10;;;;;;;7.17;3.90;;;;;;;2.42;64.37;101081.47;5010637;28;20865;-70
2022/02/13 03:22:36;;;;;;;8.67;4.27;;;;;;;2.40;63.57;101078.00;5008957;28;20206;-70
2022/02/13 03:25:04;;;;;;;5.40;3.70;;;;;;;2.42;63.73;101065.69;5005701;28;20237;-70
2022/02/13 03:27:30;;;;;;;7.20;4.20;;;;;;;2.42;64.22;101069.19;4995445;28;20223;-70
2022/02/13 03:29:57;;;;;;;8.57;4.13;;;;;;;2.40;63.57;101063.09;4999159;28;20569;-69
2022/02/13 03:32:25;;;;;;;5.83;4.03;;;;;;;2.39;63.21;101074.53;4991176;28;20298;-69
2022/02/13 03:34:51;;;;;;;7.57;3.80;;;;;;;2.38;64.07;101070.16;5007396;28;20211;-69
2022/02/13 03:37:18;;;;;;;8.97;4.10;;;;;;;2.37;63.11;101070.19;4990651;28;20235;-69
2022/02/13 03:39:44;;;;;;;5.93;3.77;;;;;;;2.35;63.34;101067.59;5003429;28;20223;-71
2022/02/13 03:42:12;;;;;;;7.07;5.00;;;;;;;2.33;63.46;101063.31;5002540;28;20207;-70
2022/02/13 03:44:38;;;;;;;8.17;4.13;;;;;;;2.30;63.03;101056.34;5006831;28;20207;-70
2022/02/13 03:47:06;;;;;;;6.23;3.60;;;;;;;2.27;63.38;101040.66;5009913;28;20231;-69
2022/02/13 03:49:34;;;;;;;5.50;3.13;;;;;;;2.29;63.13;101037.97;5009482;28;20211;-68
2022/02/13 03:52:00;;;;;;;6.00;3.50;;;;;;;2.27;63.75;101034.53;4997173;28;20692;-69
2022/02/13 03:54:27;;;;;;;5.43;3.43;;;;;;;2.25;63.19;101034.56;4997288;28;20218;-70
2022/02/13 03:56:53;;;;;;;5.80;3.40;;;;;;;2.23;63.73;101022.34;5002305;28;20227;-70
2022/02/13 03:59:20;;;;;;;6.13;3.63;;;;;;;2.19;63.61;101020.69;5008093;28;20671;-70
2022/02/13 04:01:46;;;;;;;5.10;3.50;;;;;;;2.14;63.54;101015.56;4999670;28;20204;-70
2022/02/13 04:04:13;;;;;;;5.50;3.43;;;;;;;2.09;63.39;101005.16;4998356;28;20322;-68
2022/02/13 04:06:41;;;;;;;5.47;3.63;;;;;;;2.06;63.43;101001.72;4996663;28;20238;-69
2022/02/13 04:09:07;;;;;;;7.30;3.57;;;;;;;1.99;63.83;100993.09;4991834;28;20223;-69
2022/02/13 04:11:34;;;;;;;5.00;3.63;;;;;;;1.93;64.32;100992.41;4993131;28;20306;-69
2022/02/13 04:14:00;;;;;;;5.07;3.00;;;;;;;1.87;64.54;100993.38;5009666;28;20218;-69
2022/02/13 04:16:27;;;;;;;7.70;4.03;;;;;;;1.83;64.43;100988.22;5001333;28;20224;-70
2022/02/13 04:18:54;;;;;;;6.10;3.70;;;;;;;1.77;64.40;100991.00;5008611;28;20235;-69
2022/02/13 04:21:20;;;;;;;5.83;3.47;;;;;;;1.70;65.33;100996.38;5010421;28;20213;-70
2022/02/13 04:23:48;;;;;;;5.00;4.00;;;;;;;1.65;65.23;100989.50;5004114;28;20230;-69
2022/02/13 04:26:15;;;;;;;5.97;3.97;;;;;;;1.59;65.44;100992.28;5009247;28;20231;-69
2022/02/13 04:28:41;;;;;;;6.47;4.07;;;;;;;1.53;65.99;101000.25;4996492;28;20218;-69
2022/02/13 04:31:08;;;;;;;8.83;4.17;;;;;;;1.49;65.98;101006.47;5004038;28;20211;-70
2022/02/13 04:33:34;;;;;;;8.83;4.07;;;;;;;1.44;66.58;100996.03;4993600;28;20211;-72
2022/02/13 04:36:01;;;;;;;8.60;3.87;;;;;;;1.38;66.49;100993.56;4993913;28;20231;-72
2022/02/13 04:38:28;;;;;;;6.77;4.50;;;;;;;1.34;66.94;100984.88;5012838;28;20712;-69
2022/02/13 04:40:56;;;;;;;8.43;4.10;;;;;;;1.30;66.74;100975.34;5013536;28;20217;-69
2022/02/13 04:43:23;;;;;;;5.27;4.10;;;;;;;1.25;67.11;100977.22;5011977;28;20465;-70
2022/02/13 04:45:49;;;;;;;6.60;4.10;;;;;;;1.22;67.37;100979.91;5001351;28;20223;-70
2022/02/13 04:48:16;;;;;;;7.77;3.93;;;;;;;1.22;67.32;100971.16;5006853;28;20221;-69
2022/02/13 04:50:42;;;;;;;7.00;4.47;;;;;;;1.18;67.67;100959.84;5009733;28;20620;-69
2022/02/13 04:53:09;;;;;;;5.50;3.90;;;;;;;1.19;67.73;100953.72;5004170;28;20653;-69
2022/02/13 04:55:35;;;;;;;7.27;3.80;;;;;;;1.18;67.97;100944.13;5004009;28;20800;-69
2022/02/13 04:58:05;;;;;;;4.33;2.87;;;;;;;1.17;68.11;100942.38;5000810;28;20578;-70
2022/02/13 05:00:32;;;;;;;6.00;3.87;;;;;;;1.16;67.86;100937.16;5004731;28;20233;-70
2022/02/13 05:02:58;;;;;;;6.30;3.73;;;;;;;1.13;68.20;100938.09;4996341;28;20291;-71
2022/02/13 05:05:25;;;;;;;5.63;3.87;;;;;;;1.15;68.36;100932.81;5003151;28;20211;-68
2022/02/13 05:07:52;;;;;;;7.93;3.80;;;;;;;1.15;68.09;100928.44;5001955;28;20277;-70
2022/02/13 05:10:18;;;;;;;6.57;4.33;;;;;;;1.15;67.98;100923.19;4998293;28;20213;-70
2022/02/13 05:12:45;;;;;;;8.97;4.13;;;;;;;1.15;68.31;100915.31;5004891;28;20226;-70
2022/02/13 05:15:13;;;;;;;5.37;3.87;;;;;;;1.13;68.38;100918.88;5004568;28;20569;-69
2022/02/13 05:17:39;;;;;;;5.53;3.77;;;;;;;1.12;68.48;100925.88;4999920;28;20713;-70
2022/02/13 05:20:07;;;;;;;9.47;4.33;;;;;;;1.09;68.30;100928.53;5006224;28;20226;-70
2022/02/13 05:22:34;;;;;;;6.17;3.80;;;;;;;1.07;68.26;100926.88;5013335;28;20214;-70
2022/02/13 05:25:01;;;;;;;6.67;4.37;;;;;;;1.04;68.21;100931.28;4995156;28;20302;-69
2022/02/13 05:27:27;;;;;;;6.13;4.10;;;;;;;1.03;68.08;100937.44;4993305;28;20277;-70
2022/02/13 05:29:54;;;;;;;5.70;3.97;;;;;;;1.00;68.38;100934.84;4996633;28;20203;-70
2022/02/13 05:32:22;;;;;;;10.20;4.57;;;;;;;0.97;68.08;100923.56;4993331;28;20222;-70
2022/02/13 05:34:48;;;;;;;6.57;4.17;;;;;;;0.93;68.06;100919.25;5008413;28;20632;-70
2022/02/13 05:37:16;;;;;;;9.50;4.27;;;;;;;0.90;68.17;100916.69;5006655;28;20236;-71
2022/02/13 05:39:43;;;;;;;7.53;3.87;;;;;;;0.86;68.45;100920.28;5002911;28;20234;-70
2022/02/13 05:42:09;;;;;;;7.67;4.23;;;;;;;0.83;68.60;100915.09;4997357;28;20215;-71
2022/02/13 05:44:36;;;;;;;5.87;4.37;;;;;;;0.79;68.69;100910.81;4997952;28;20278;-70
2022/02/13 05:47:03;;;;;;;6.77;4.53;;;;;;;0.76;68.53;100913.47;5002469;28;20345;-70
2022/02/13 05:49:31;;;;;;;7.43;4.77;;;;;;;0.72;68.58;100912.66;5012834;28;20306;-70
2022/02/13 05:51:58;;;;;;;8.10;4.07;;;;;;;0.69;68.63;100908.38;4996183;28;20204;-70
2022/02/13 05:54:24;;;;;;;9.30;4.40;;;;;;;0.67;68.87;100891.81;5001085;28;20294;-70
2022/02/13 05:56:51;;;;;;;5.67;4.60;;;;;;;0.65;68.63;100895.34;5002005;28;20284;-70
2022/02/13 05:59:18;;;;;;;6.93;4.23;;;;;;;0.63;68.87;100886.66;4994678;28;20233;-70
2022/02/13 06:01:44;;;;;;;6.50;4.60;;;;;;;0.62;69.12;100884.91;4999104;28;20313;-71
2022/02/13 06:04:11;;;;;;;6.37;4.13;;;;;;;0.60;69.23;100892.81;5004946;28;20563;-70
2022/02/13 06:06:39;;;;;;;6.43;4.63;;;;;;;0.58;68.98;100881.47;5002566;28;20325;-71
2022/02/13 06:09:06;;;;;;;6.50;4.97;;;;;;;0.56;69.13;100877.16;4998589;28;20211;-70
2022/02/13 06:11:32;;;;;;;7.03;4.83;;;;;;;0.49;69.42;100884.28;4999635;28;20322;-70
2022/02/13 06:13:59;;;;;;;7.70;4.77;;;;;;;0.45;69.07;100879.13;5004351;28;20221;-70
2022/02/13 06:16:26;;;;;;;8.20;4.60;;;;;;;0.40;69.66;100868.72;4999200;28;20226;-70
2022/02/13 06:18:52;;;;;;;8.37;5.57;;;;;;;0.34;69.51;100869.72;4999306;28;20681;-70
2022/02/13 06:21:20;;;;;;;12.33;5.20;;;;;;;0.31;69.91;100863.66;5003808;28;20218;-70
2022/02/13 06:23:48;;;;;;;8.87;5.47;;;;;;;0.28;70.44;100879.44;5008892;28;20210;-70
2022/02/13 06:26:15;;;;;;;8.00;5.40;;;;;;;0.27;70.63;100885.56;5008686;28;20242;-70
2022/02/13 06:28:42;;;;;;;9.63;5.43;;;;;;;0.26;70.63;100883.81;5009523;28;20211;-70
2022/02/13 06:31:09;;;;;;;10.33;5.73;;;;;;;0.24;70.99;100883.84;5002937;28;20327;-70
2022/02/13 06:33:35;;;;;;;9.40;5.87;;;;;;;0.22;70.86;100880.38;4991930;28;20686;-70
2022/02/13 06:36:02;;;;;;;9.17;5.47;;;;;;;0.21;71.05;100885.66;5003487;28;20726;-71
2022/02/13 06:38:29;;;;;;;8.53;5.53;;;;;;;0.20;71.35;100889.16;5003916;28;20301;-70
2022/02/13 06:40:57;;;;;;;10.53;5.67;;;;;;;0.20;71.06;100891.78;5007232;28;20266;-70
2022/02/13 06:43:24;;;;;;;8.30;6.07;;;;;;;0.21;71.08;100896.13;5010047;28;20301;-70
2022/02/13 06:45:50;;;;;;;9.67;5.70;;;;;;;0.20;71.62;100895.25;5007703;28;20322;-70
2022/02/13 06:48:17;;;;;;;8.50;5.67;;;;;;;0.21;71.32;100897.00;5005667;28;20580;-70
2022/02/13 06:50:43;;;;;;;8.43;5.90;;;;;;;0.19;71.69;100884.81;4996190;28;20306;-70
2022/02/13 06:53:10;;;;;;;8.97;6.23;;;;;;;0.19;71.64;100895.28;4997023;28;20250;-70
2022/02/13 06:55:37;;;;;;;9.87;6.20;;;;;;;0.17;71.72;100897.97;5000209;28;20638;-71
2022/02/13 06:58:05;;;;;;;11.40;6.10;;;;;;;0.14;71.75;100905.00;5000478;28;20235;-70
2022/02/13 07:00:32;;;;;;;10.87;5.87;;;;;;;0.12;71.49;100898.91;5000690;28;20318;-70
2022/02/13 07:02:58;;;;;;;9.70;6.90;;;;;;;0.10;71.44;100917.28;5007980;28;20289;-70
2022/02/13 07:05:25;;;;;;;9.37;5.90;;;;;;;0.08;71.92;100915.56;5007111;28;20302;-70
2022/02/13 07:07:52;;;;;;;8.23;6.17;;;;;;;0.06;71.82;100919.97;4994196;28;20219;-70
2022/02/13 07:10:19;;;;;;;7.73;5.87;;;;;;;0.04;72.05;100932.22;5000583;28;20207;-70
2022/02/13 07:12:46;;;;;;;10.17;6.00;;;;;;;0.02;72.10;100924.38;5006430;28;20218;-70
2022/02/13 07:15:14;;;;;;;9.60;5.60;;;;;;;0.00;71.97;100920.94;5004150;28;20222;-70
2022/02/13 07:17:41;;;;;;;10.83;5.97;;;;;;;-0.03;72.13;100927.09;5004376;28;20239;-70
2022/02/13 07:20:08;;;;;;;14.43;6.90;;;;;;;-0.03;72.10;100915.75;5007803;28;20394;-71
2022/02/13 07:22:35;;;;;;;13.33;7.93;;;;;;;-0.05;72.34;100928.88;5001592;28;20349;-70
2022/02/13 07:25:02;;;;;;;14.93;7.97;;;;;;;-0.06;71.95;100921.03;5001414;28;20208;-71
2022/02/13 07:27:30;;;;;;;13.57;6.90;;;;;;;-0.06;72.42;100911.41;5004344;28;20716;-70
2022/02/13 07:29:57;;;;;;;13.33;7.17;;;;;;;-0.04;72.21;100914.88;4996941;28;20550;-71
2022/02/13 07:32:25;;;;;;;9.77;6.13;;;;;;;-0.01;72.68;100912.22;4995293;28;20291;-71
2022/02/13 07:34:51;;;;;;;11.93;6.80;;;;;;;0.05;72.36;100907.75;4994929;28;20284;-71
2022/02/13 07:37:18;;;;;;;10.10;6.33;;;;;;;0.08;72.53;100910.31;5000600;28;20247;-71
2022/02/13 07:39:47;;;;;;;10.03;6.40;;;;;;;0.12;72.67;100915.50;4999093;28;20315;-71
2022/02/13 07:42:13;;;;;;;7.03;4.80;;;;;;;0.19;72.58;100914.47;5002194;28;20246;-70
2022/02/13 07:44:41;;;;;;;9.93;5.60;;;;;;;0.26;72.63;100913.50;5000051;28;20239;-70
2022/02/13 07:47:08;;;;;;;11.33;5.77;;;;;;;0.32;72.69;100913.41;5000591;28;20223;-71
2022/02/13 07:49:39;;;;;;;12.67;6.13;;;;;;;0.40;72.44;100915.00;5001432;28;20329;-71
2022/02/13 07:52:06;;;;;;;10.63;6.03;;;;;;;0.46;72.04;100910.53;5000582;28;20233;-71
2022/02/13 07:54:33;;;;;;;9.37;6.03;;;;;;;0.53;72.12;100903.44;4998239;28;20211;-69
2022/02/13 07:56:59;;;;;;;9.20;5.37;;;;;;;0.57;71.88;100908.56;4999856;28;20668;-70
2022/02/13 07:59:26;;;;;;;11.37;6.10;;;;;;;0.63;71.55;100902.38;4998223;28;20287;-69
2022/02/13 08:01:53;;;;;;;10.10;6.20;;;;;;;0.67;71.14;100910.16;5000743;28;20203;-69
2022/02/13 08:04:19;;;;;;;12.20;6.03;;;;;;;0.76;71.08;100913.47;4994394;28;20238;-70
2022/02/13 08:06:47;;;;;;;11.50;6.73;;;;;;;0.82;71.03;100914.22;5043839;22;20570;-86
2022/02/13 08:09:15;;;;;;;9.60;5.97;;;;;;;0.88;70.44;100914.13;5075837;28;20215;-86
2022/02/13 08:11:42;;;;;;;7.97;5.63;;;;;;;0.98;70.44;100914.78;5077488;28;20648;-86
2022/02/13 08:14:08;;;;;;;8.33;4.57;;;;;;;1.04;69.72;100905.06;5077915;28;20224;-85
2022/02/13 08:16:35;;;;;;;6.87;5.37;;;;;;;1.14;69.53;100905.72;5074098;28;20228;-86
2022/02/13 08:19:01;;;;;;;7.73;4.77;;;;;;;1.23;69.20;100907.31;5077768;28;20205;-86
2022/02/13 08:21:28;;;;;;;8.13;5.50;;;;;;;1.35;68.78;100905.28;5077577;28;20604;-86
2022/02/13 08:23:56;;;;;;;9.33;5.33;;;;;;;1.46;68.22;100896.28;5077405;28;20264;-86
2022/02/13 08:26:22;;;;;;;9.70;5.23;;;;;;;1.57;68.25;100889.06;5078332;28;20244;-85
2022/02/13 08:28:50;;;;;;;7.97;5.40;;;;;;;1.71;67.53;100889.59;5078578;28;20268;-86
2022/02/13 08:31:16;;;;;;;6.27;4.20;;;;;;;1.86;67.01;100883.13;5078470;28;20700;-86
2022/02/13 08:33:43;;;;;;;6.73;4.50;;;;;;;2.00;65.97;100888.88;5078038;28;20669;-86
2022/02/13 08:36:09;;;;;;;7.13;5.10;;;;;;;2.08;66.16;100893.06;5077991;28;20243;-86
2022/02/13 08:38:36;;;;;;;7.30;5.23;;;;;;;2.20;65.65;100901.53;5075928;28;20197;-86
2022/02/13 08:41:05;;;;;;;6.80;4.70;;;;;;;2.31;65.71;100891.63;5067645;28;20318;-87
2022/02/13 08:43:32;;;;;;;7.70;4.90;;;;;;;2.44;64.88;100882.53;5079132;28;20200;-86
2022/02/13 08:45:58;;;;;;;5.37;4.40;;;;;;;2.56;64.47;100883.94;5077753;28;20288;-86
2022/02/13 08:48:25;;;;;;;7.73;4.83;;;;;;;2.70;62.58;100877.41;5079484;28;20759;-86
2022/02/13 08:50:52;;;;;;;8.20;4.57;;;;;;;2.82;63.07;100885.88;5099764;28;20236;-86
2022/02/13 08:53:19;;;;;;;6.43;3.87;;;;;;;2.93;61.64;100868.88;5082437;28;20224;-86
2022/02/13 08:55:46;;;;;;;6.93;4.43;;;;;;;3.04;60.55;100882.63;5071927;28;20201;-85
2022/02/13 08:58:14;;;;;;;5.03;3.80;;;;;;;3.15;61.00;100874.41;5068103;28;20655;-86
2022/02/13 09:00:40;;;;;;;6.93;4.83;;;;;;;3.25;60.01;100867.06;5069307;28;20221;-86
2022/02/13 09:03:07;;;;;;;6.67;4.73;;;;;;;3.32;60.13;100858.97;5069136;28;20197;-86
2022/02/13 09:05:34;;;;;;;5.17;3.97;;;;;;;3.41;59.91;100855.16;5070104;28;20206;-86
2022/02/13 09:08:02;;;;;;;7.43;4.70;;;;;;;3.48;59.23;100859.34;5067224;28;20213;-86
2022/02/13 09:10:29;;;;;;;5.73;4.33;;;;;;;3.55;58.52;100857.41;5064443;28;20550;-85
2022/02/13 09:12:56;;;;;;;4.40;3.63;;;;;;;3.61;58.09;100846.66;5066599;28;20209;-86
2022/02/13 09:15:25;;;;;;;6.57;4.03;;;;;;;3.65;57.69;100858.81;5070296;28;20822;-86
2022/02/13 09:17:51;;;;;;;8.07;4.73;;;;;;;3.70;58.11;100844.59;5072318;28;20228;-86
2022/02/13 09:20:18;;;;;;;6.87;4.83;;;;;;;3.76;57.24;100836.50;5073911;28;20224;-85
2022/02/13 09:22:44;;;;;;;7.07;4.27;;;;;;;3.84;57.51;100833.63;5067011;28;20280;-86
2022/02/13 09:25:11;;;;;;;7.87;4.87;;;;;;;3.94;57.81;100827.13;5061190;28;20578;-86
2022/02/13 09:27:37;;;;;;;5.73;4.07;;;;;;;4.06;57.33;100821.47;5072133;28;20249;-87
2022/02/13 09:30:07;;;;;;;5.77;3.80;;;;;;;4.17;57.61;100823.72;5070689;28;20209;-85
2022/02/13 09:32:38;;;;;;;5.40;3.40;;;;;;;4.28;56.88;100818.09;5070128;28;20201;-85
2022/02/13 09:35:07;;;;;;;6.80;4.20;;;;;;;4.39;55.64;100827.34;5067511;28;20259;-85
2022/02/13 09:37:37;;;;;;;6.83;4.07;;;;;;;4.47;55.98;100824.44;5069294;28;20274;-86
2022/02/13 09:40:04;;;;;;;10.53;4.83;;;;;;;4.56;55.25;100825.88;5070621;28;20343;-85
2022/02/13 09:42:32;;;;;;;4.63;4.07;;;;;;;4.63;55.23;100828.25;5071155;28;20229;-86
2022/02/13 09:44:59;;;;;;;7.13;4.47;;;;;;;4.70;55.64;100819.19;5077969;28;20236;-85
2022/02/13 09:47:25;;;;;;;4.80;3.50;;;;;;;4.84;55.24;100808.97;5071143;28;20226;-84
2022/02/13 09:49:53;;;;;;;7.57;4.47;;;;;;;4.92;55.52;100810.47;5064289;28;20661;-85
2022/02/13 09:52:20;;;;;;;5.47;4.20;;;;;;;5.02;55.12;100804.78;5067480;28;20233;-85
2022/02/13 09:54:47;;;;;;;5.60;4.20;;;;;;;5.11;55.34;100798.31;5064064;28;20220;-85
2022/02/13 09:59:59;;;;;;;7.07;4.80;;;;;;;5.32;54.67;100781.63;5067933;28;20276;-85
2022/02/13 10:02:39;;;;;;;6.77;4.13;;;;;;;5.41;54.26;100773.31;5065463;28;20292;-86
2022/02/13 10:05:10;;;;;;;5.23;3.90;;;;;;;5.48;53.86;100771.31;5079616;28;20223;-85
2022/02/13 10:07:38;;;;;;;8.07;4.30;;;;;;;5.51;53.15;100768.56;5076662;28;20778;-85
2022/02/13 10:10:07;;;;;;;9.40;5.43;;;;;;;5.54;53.25;100758.72;5061629;28;20296;-85
2022/02/13 10:12:39;;;;;;;10.07;5.20;;;;;;;5.59;53.47;100762.00;5069063;28;20200;-85
2022/02/13 10:15:29;;;;;;;8.90;5.80;;;;;;;5.64;52.55;100760.97;5065876;28;20222;-85
2022/02/13 10:17:57;;;;;;;6.80;3.50;;;;;;;5.69;52.23;100761.66;5063793;28;20654;-85
2022/02/13 10:20:27;;;;;;;8.13;4.87;;;;;;;5.71;51.50;100765.09;5070530;28;20225;-85
2022/02/13 10:22:54;;;;;;;11.13;5.33;;;;;;;5.74;51.04;100771.09;5068649;28;20288;-85
2022/02/13 10:25:21;;;;;;;10.53;7.00;;;;;;;5.77;51.13;100770.09;5075426;28;20296;-85
2022/02/13 10:27:49;;;;;;;5.10;4.10;;;;;;;5.81;51.33;100769.06;5063424;28;20308;-88
2022/02/13 10:30:37;;;;;;;8.60;6.13;;;;;;;5.85;50.74;100773.31;5061403;28;20212;-88
2022/02/13 10:33:15;;;;;;;6.43;4.43;;;;;;;5.91;50.74;100759.88;5068528;28;20197;-88
2022/02/13 10:35:43;;;;;;;6.87;4.00;;;;;;;5.97;49.76;100745.50;5066459;28;20287;-89
2022/02/13 10:38:10;;;;;;;5.87;4.47;;;;;;;5.95;50.18;100756.16;5065851;28;20276;-88
2022/02/13 10:40:37;;;;;;;7.63;4.13;;;;;;;5.97;49.96;100742.88;5064659;28;20312;-88
2022/02/13 10:43:05;;;;;;;6.80;4.47;;;;;;;5.94;50.01;100751.78;5058054;28;20678;-88
2022/02/13 10:45:32;;;;;;;5.63;3.80;;;;;;;5.97;49.79;100737.59;5070192;28;20203;-87
2022/02/13 10:48:00;;;;;;;6.20;4.10;;;;;;;6.01;49.76;100737.38;5072360;28;20211;-86
2022/02/13 10:50:30;;;;;;;7.30;4.10;;;;;;;6.04;49.43;100729.34;5074325;28;20254;-84
2022/02/13 10:53:01;;;;;;;6.17;4.40;;;;;;;6.09;49.50;100734.44;5082632;28;20213;-84
2022/02/13 10:55:28;;;;;;;6.50;4.23;;;;;;;6.12;49.42;100723.69;5080235;28;20205;-84
2022/02/13 10:57:57;;;;;;;5.27;3.90;;;;;;;6.15;49.23;100713.84;5074660;28;20227;-85
2022/02/13 11:00:26;;;;;;;5.80;4.63;;;;;;;6.18;48.68;100723.44;5078759;28;20205;-84
2022/02/13 11:02:55;;;;;;;5.33;4.60;;;;;;;6.23;48.52;100717.03;5078997;28;20205;-84
2022/02/13 11:05:25;;;;;;;5.83;4.27;;;;;;;6.25;48.52;100720.47;5080254;28;20288;-84
2022/02/13 11:07:55;;;;;;;5.33;4.23;;;;;;;6.28;47.81;100714.16;5077154;28;20233;-84
2022/02/13 11:10:26;;;;;;;5.80;4.00;;;;;;;6.30;47.80;100714.09;5061974;28;20216;-84
2022/02/13 11:12:54;;;;;;;6.53;4.27;;;;;;;6.31;47.50;100721.97;5071909;28;20205;-84
2022/02/13 11:15:23;;;;;;;5.63;4.23;;;;;;;6.39;48.19;100711.91;5083165;28;20209;-84
2022/02/13 11:17:52;;;;;;;6.80;4.43;;;;;;;6.43;47.59;100712.63;5076868;28;20217;-84
2022/02/13 11:20:20;;;;;;;6.50;4.53;;;;;;;6.46;47.79;100708.03;5070400;28;20201;-85
2022/02/13 11:22:53;;;;;;;6.83;4.43;;;;;;;6.50;47.97;100703.47;5087700;28;20227;-84
2022/02/13 11:25:55;;;;;;;6.83;4.20;;;;;;;6.50;47.48;100693.75;5072458;28;20263;-85
2022/02/13 11:28:26;;;;;;;5.60;3.97;;;;;;;6.50;47.54;100677.00;5069586;28;20223;-84
2022/02/13 11:30:56;;;;;;;7.73;4.07;;;;;;;6.55;47.24;100678.53;5071506;28;20201;-84
2022/02/13 11:33:43;;;;;;;5.93;3.97;;;;;;;6.64;48.00;100674.56;5074148;28;20565;-84
2022/02/13 11:36:12;;;;;;;5.70;4.30;;;;;;;6.67;47.51;100668.28;5072585;28;20270;-84